createdAt,value
2022-12-07T00:01:19.963Z,28.35
2022-12-07T00:03:47.954Z,27.80
2022-12-07T00:06:16.333Z,31.60
2022-12-07T00:08:42.839Z,38.00
2022-12-07T00:11:12.608Z,39.25
2022-12-07T00:13:39.902Z,54.80
2022-12-07T00:16:12.308Z,42.90
2022-12-07T00:18:39.050Z,46.85
2022-12-07T00:21:13.419Z,42.92
2022-12-07T00:23:41.523Z,45.25
2022-12-07T00:26:13.892Z,43.42
2022-12-07T00:28:40.339Z,57.00
2022-12-07T00:31:10.044Z,38.42
2022-12-07T00:33:36.903Z,46.50
2022-12-07T00:36:07.183Z,39.60
2022-12-07T00:38:35.296Z,46.70
2022-12-07T00:41:04.544Z,33.72
2022-12-07T00:43:31.780Z,36.67
2022-12-07T00:45:59.023Z,41.15
2022-12-07T00:48:25.547Z,31.42
2022-12-07T00:50:52.470Z,33.72
2022-12-07T00:53:18.872Z,28.08
2022-12-07T00:55:46.503Z,38.08
2022-12-07T00:58:13.289Z,30.85
2022-12-07T01:00:42.424Z,36.58
2022-12-07T01:03:12.214Z,30.85
2022-12-07T01:05:39.060Z,39.22
2022-12-07T01:08:06.583Z,32.22
2022-12-07T01:10:33.436Z,33.03
2022-12-07T01:13:00.287Z,25.55
2022-12-07T01:15:27.359Z,27.50
2022-12-07T01:17:55.630Z,28.88
2022-12-07T01:20:22.596Z,26.20
2022-12-07T01:22:49.014Z,24.58
2022-12-07T01:25:15.924Z,23.98
2022-12-07T01:27:42.391Z,25.98
2022-12-07T01:30:10.907Z,26.15
2022-12-07T01:32:37.437Z,31.73
2022-12-07T01:35:04.156Z,29.92
2022-12-07T01:37:35.481Z,27.73
2022-12-07T01:40:02.115Z,31.63
2022-12-07T01:42:29.335Z,29.08
2022-12-07T01:45:26.588Z,35.30
2022-12-07T01:47:56.636Z,29.85
2022-12-07T01:50:26.373Z,25.33
2022-12-07T01:52:57.347Z,26.33
2022-12-07T01:55:24.685Z,23.13
2022-12-07T01:57:54.020Z,25.52
2022-12-07T02:00:20.897Z,29.15
2022-12-07T02:02:58.383Z,28.98
2022-12-07T02:05:25.901Z,23.55
2022-12-07T02:07:55.643Z,25.65
2022-12-07T02:10:24.970Z,30.50
2022-12-07T02:12:56.683Z,26.45
2022-12-07T02:15:28.516Z,26.55
2022-12-07T02:18:18.019Z,21.27
2022-12-07T02:21:23.211Z,24.27
2022-12-07T02:24:26.795Z,22.42
2022-12-07T02:27:17.100Z,19.70
2022-12-07T02:29:50.688Z,21.30
2022-12-07T02:32:24.338Z,19.50
2022-12-07T02:35:13.438Z,24.42
2022-12-07T02:37:52.487Z,27.00
2022-12-07T02:40:22.686Z,22.20
2022-12-07T02:42:54.590Z,21.92
2022-12-07T02:45:23.576Z,23.27
2022-12-07T02:47:54.073Z,21.95
2022-12-07T02:50:23.587Z,27.48
2022-12-07T02:52:50.080Z,21.35
2022-12-07T02:55:19.645Z,20.08
2022-12-07T02:57:57.864Z,24.08
2022-12-07T03:00:24.396Z,19.60
2022-12-07T03:02:59.571Z,25.15
2022-12-07T03:05:50.577Z,20.20
2022-12-07T03:08:16.984Z,24.63
2022-12-07T03:11:01.436Z,19.00
2022-12-07T03:13:42.157Z,22.23
2022-12-07T03:16:20.727Z,29.15
2022-12-07T03:19:00.228Z,19.63
2022-12-07T03:21:39.255Z,17.25
2022-12-07T03:24:12.548Z,20.98
2022-12-07T03:26:51.472Z,20.95
2022-12-07T03:29:26.357Z,21.45
2022-12-07T03:32:01.924Z,17.02
2022-12-07T03:34:37.177Z,25.00
2022-12-07T03:37:09.542Z,17.60
2022-12-07T03:39:58.273Z,22.45
2022-12-07T03:42:24.944Z,17.88
2022-12-07T03:44:51.693Z,18.88
2022-12-07T03:47:24.026Z,20.73
2022-12-07T03:49:54.909Z,16.27
2022-12-07T03:52:54.697Z,16.50
2022-12-07T03:55:23.752Z,24.15
2022-12-07T03:57:54.459Z,18.75
2022-12-07T04:00:21.058Z,19.87
2022-12-07T04:02:48.313Z,15.65
2022-12-07T04:05:14.832Z,17.38
2022-12-07T04:07:42.187Z,20.92
2022-12-07T04:10:08.999Z,22.65
2022-12-07T04:12:35.433Z,19.15
2022-12-07T04:15:01.911Z,21.70
2022-12-07T04:17:28.329Z,25.92
2022-12-07T04:19:54.787Z,22.58
2022-12-07T04:22:21.211Z,21.85
2022-12-07T04:24:47.616Z,22.58
2022-12-07T04:27:14.005Z,24.02
2022-12-07T04:29:40.468Z,24.00
2022-12-07T04:32:06.887Z,21.80
2022-12-07T04:34:33.347Z,23.08
2022-12-07T04:36:59.832Z,20.20
2022-12-07T04:39:29.600Z,23.63
2022-12-07T04:41:57.177Z,18.88
2022-12-07T04:44:25.431Z,19.15
2022-12-07T04:46:53.397Z,22.88
2022-12-07T04:49:20.622Z,37.00
2022-12-07T04:51:47.491Z,62.05
2022-12-07T04:54:15.709Z,42.35
2022-12-07T04:56:42.750Z,25.92
2022-12-07T04:59:10.988Z,24.45
2022-12-07T05:01:37.536Z,18.63
2022-12-07T05:04:04.238Z,19.02
2022-12-07T05:06:30.822Z,19.08
2022-12-07T05:08:57.277Z,18.38
2022-12-07T05:11:41.835Z,19.15
2022-12-07T05:14:15.888Z,22.33
2022-12-07T05:16:44.259Z,20.55
2022-12-07T05:19:11.198Z,24.50
2022-12-07T05:21:38.523Z,23.10
2022-12-07T05:24:06.201Z,19.60
2022-12-07T05:26:33.011Z,20.88
2022-12-07T05:28:59.567Z,21.38
2022-12-07T05:31:28.323Z,29.58
2022-12-07T05:33:55.051Z,27.33
2022-12-07T05:36:21.794Z,21.70
2022-12-07T05:38:48.202Z,20.08
2022-12-07T05:41:36.171Z,21.15
2022-12-07T05:44:02.902Z,17.02
2022-12-07T05:46:29.320Z,16.98
2022-12-07T05:48:55.865Z,19.70
2022-12-07T05:51:22.459Z,21.45
2022-12-07T05:53:48.987Z,20.77
2022-12-07T05:56:15.560Z,22.08
2022-12-07T05:59:00.758Z,29.40
2022-12-07T06:01:27.521Z,24.35
2022-12-07T06:03:53.951Z,28.48
2022-12-07T06:06:20.497Z,21.30
2022-12-07T06:08:47.053Z,20.70
2022-12-07T06:11:31.902Z,26.83
2022-12-07T06:13:58.350Z,21.73
2022-12-07T06:16:24.848Z,23.30
2022-12-07T06:18:51.378Z,27.08
2022-12-07T06:21:17.789Z,18.70
2022-12-07T06:23:44.192Z,26.40
2022-12-07T06:26:10.655Z,23.50
2022-12-07T06:28:37.112Z,31.73
2022-12-07T06:31:04.555Z,23.75
2022-12-07T06:33:32.852Z,19.00
2022-12-07T06:35:59.240Z,27.15
2022-12-07T06:38:25.953Z,22.13
2022-12-07T06:40:52.399Z,30.38
2022-12-07T06:43:18.855Z,22.52
2022-12-07T06:45:45.396Z,20.65
2022-12-07T06:48:11.889Z,27.58
2022-12-07T06:50:38.572Z,23.55
2022-12-07T06:53:05.052Z,24.30
2022-12-07T06:55:31.464Z,23.33
2022-12-07T06:57:57.923Z,23.10
2022-12-07T07:00:25.527Z,18.58
2022-12-07T07:02:52.102Z,23.42
2022-12-07T07:05:18.681Z,20.13
2022-12-07T07:08:19.757Z,21.42
2022-12-07T07:10:31.563Z,20.33
2022-12-07T07:12:58.015Z,21.10
2022-12-07T07:15:24.940Z,22.27
2022-12-07T07:17:51.567Z,19.95
2022-12-07T07:20:18.316Z,25.92
2022-12-07T07:22:44.925Z,22.48
2022-12-07T07:25:11.400Z,23.92
2022-12-07T07:27:37.837Z,20.50
2022-12-07T07:30:05.618Z,21.70
2022-12-07T07:32:32.113Z,23.30
2022-12-07T07:34:58.575Z,20.65
2022-12-07T07:37:25.141Z,24.23
2022-12-07T07:39:51.553Z,22.13
2022-12-07T07:42:18.153Z,21.63
2022-12-07T07:44:44.826Z,19.38
2022-12-07T07:47:11.285Z,21.98
2022-12-07T07:49:39.883Z,29.45
2022-12-07T07:52:09.693Z,27.65
2022-12-07T07:54:36.242Z,22.02
2022-12-07T07:57:02.720Z,26.02
2022-12-07T07:59:29.251Z,24.83
2022-12-07T08:01:55.999Z,22.17
2022-12-07T08:04:22.660Z,24.55
2022-12-07T08:06:49.135Z,21.85
2022-12-07T08:09:15.576Z,21.48
2022-12-07T08:11:42.034Z,20.50
2022-12-07T08:14:08.511Z,22.55
2022-12-07T08:16:34.928Z,22.38
2022-12-07T08:19:01.363Z,23.25
2022-12-07T08:21:27.847Z,23.52
2022-12-07T08:23:54.359Z,23.33
2022-12-07T08:26:20.891Z,23.05
2022-12-07T08:28:47.361Z,23.48
2022-12-07T08:31:17.568Z,25.70
2022-12-07T08:33:46.628Z,28.27
2022-12-07T08:36:14.454Z,24.25
2022-12-07T08:39:07.886Z,23.65
2022-12-07T08:41:33.558Z,26.45
2022-12-07T08:44:00.039Z,21.58
2022-12-07T08:46:40.913Z,21.77
2022-12-07T08:49:24.416Z,21.63
2022-12-07T08:51:51.005Z,20.65
2022-12-07T08:54:19.385Z,21.05
2022-12-07T08:56:49.471Z,21.67
2022-12-07T08:59:19.024Z,26.23
2022-12-07T09:01:45.559Z,22.15
2022-12-07T09:04:12.268Z,22.13
2022-12-07T09:06:39.462Z,25.35
2022-12-07T09:09:07.590Z,26.77
2022-12-07T09:11:34.041Z,25.00
2022-12-07T09:14:00.508Z,26.50
2022-12-07T09:16:27.095Z,25.02
2022-12-07T09:18:53.568Z,29.92
2022-12-07T09:21:19.973Z,27.15
2022-12-07T09:23:46.572Z,27.27
2022-12-07T09:26:13.048Z,22.33
2022-12-07T09:28:39.872Z,26.83
2022-12-07T09:31:23.768Z,24.70
2022-12-07T09:33:59.104Z,26.85
2022-12-07T09:36:26.737Z,25.58
2022-12-07T09:38:53.559Z,28.20
2022-12-07T09:41:20.993Z,27.02
2022-12-07T09:43:48.010Z,29.80
2022-12-07T09:46:18.457Z,27.77
2022-12-07T09:48:45.851Z,27.85
2022-12-07T09:51:23.165Z,28.02
2022-12-07T09:53:53.329Z,29.30
2022-12-07T09:56:20.953Z,28.58
2022-12-07T09:58:48.294Z,31.35
2022-12-07T10:01:16.183Z,30.38
2022-12-07T10:03:54.044Z,31.63
2022-12-07T10:06:20.495Z,28.52
2022-12-07T10:08:47.385Z,29.35
2022-12-07T10:11:17.992Z,29.42
2022-12-07T10:13:54.919Z,33.57
2022-12-07T10:16:39.174Z,31.40
2022-12-07T10:19:26.869Z,37.65
2022-12-07T10:22:02.342Z,31.20
2022-12-07T10:24:29.068Z,36.00
2022-12-07T10:26:55.981Z,33.85
2022-12-07T10:29:25.268Z,32.38
2022-12-07T10:32:04.988Z,29.33
2022-12-07T10:34:42.600Z,33.25
2022-12-07T10:37:13.813Z,31.58
2022-12-07T10:39:51.098Z,31.33
2022-12-07T10:42:21.101Z,34.42
2022-12-07T10:44:49.334Z,34.70
2022-12-07T10:47:38.395Z,36.67
2022-12-07T10:50:46.921Z,32.13
2022-12-07T10:53:34.343Z,33.53
2022-12-07T10:56:23.007Z,38.88
2022-12-07T10:58:58.496Z,32.60
2022-12-07T11:01:43.594Z,35.47
2022-12-07T11:04:25.384Z,36.15
2022-12-07T11:09:18.124Z,37.47
2022-12-07T11:11:57.677Z,48.78
2022-12-07T11:14:41.821Z,39.80
2022-12-07T11:17:10.938Z,38.90
2022-12-07T11:20:13.797Z,38.42
2022-12-07T11:22:59.335Z,40.15
2022-12-07T11:25:36.624Z,38.67
2022-12-07T11:28:47.300Z,40.05
2022-12-07T11:31:52.090Z,38.35
2022-12-07T11:34:36.891Z,42.80
2022-12-07T11:37:09.515Z,41.03
2022-12-07T11:39:47.244Z,41.55
2022-12-07T11:42:37.435Z,42.33
2022-12-07T11:45:11.596Z,45.40
2022-12-07T11:47:47.621Z,44.30
2022-12-07T11:50:39.576Z,41.08
2022-12-07T11:53:08.935Z,43.28
2022-12-07T11:55:53.942Z,41.60
2022-12-07T11:58:38.504Z,42.97
2022-12-07T12:01:20.205Z,49.28
2022-12-07T12:06:20.929Z,43.97
2022-12-07T12:15:23.573Z,44.72
2022-12-07T12:18:15.011Z,46.63
2022-12-07T12:20:51.557Z,44.67
2022-12-07T12:23:44.401Z,43.53
2022-12-07T12:26:25.904Z,47.60
2022-12-07T12:29:02.756Z,40.20
2022-12-07T12:31:29.157Z,45.35
2022-12-07T12:33:57.966Z,43.72
2022-12-07T12:36:43.985Z,43.60
2022-12-07T12:39:15.186Z,43.17
2022-12-07T12:42:01.845Z,41.53
2022-12-07T12:44:32.132Z,43.10
2022-12-07T12:47:02.962Z,38.72
2022-12-07T12:49:29.333Z,39.97
2022-12-07T12:52:01.368Z,38.42
2022-12-07T12:54:37.354Z,41.75
2022-12-07T12:57:17.457Z,38.38
2022-12-07T13:00:16.093Z,35.72
2022-12-07T13:02:54.072Z,38.65
2022-12-07T13:05:28.290Z,39.78
2022-12-07T13:08:19.266Z,38.92
2022-12-07T13:10:48.037Z,41.08
2022-12-07T13:13:19.934Z,42.00
2022-12-07T13:16:08.124Z,44.92
2022-12-07T13:18:34.641Z,43.72
2022-12-07T13:21:26.336Z,41.47
2022-12-07T13:24:00.171Z,36.47
2022-12-07T13:26:43.274Z,41.45
2022-12-07T13:29:18.604Z,42.47
2022-12-07T13:31:47.908Z,41.78
2022-12-07T13:34:44.720Z,43.75
2022-12-07T13:37:38.550Z,43.10
2022-12-07T13:40:23.708Z,45.95
2022-12-07T13:42:58.974Z,41.70
2022-12-07T13:45:50.488Z,41.35
2022-12-07T13:48:28.684Z,43.75
2022-12-07T13:50:56.415Z,41.28
2022-12-07T13:53:23.433Z,43.33
2022-12-07T13:55:54.279Z,44.58
2022-12-07T13:58:21.100Z,47.40
2022-12-07T14:00:47.608Z,41.63
2022-12-07T14:03:14.032Z,43.67
2022-12-07T14:05:42.523Z,42.63
2022-12-07T14:08:12.029Z,42.80
2022-12-07T14:10:55.780Z,44.85
2022-12-07T14:13:37.279Z,45.17
2022-12-07T14:16:06.856Z,40.22
2022-12-07T14:18:41.417Z,45.20
2022-12-07T14:21:17.247Z,52.47
2022-12-07T14:23:43.868Z,45.03
2022-12-07T14:26:20.390Z,44.17
2022-12-07T14:28:47.769Z,45.08
2022-12-07T14:31:29.618Z,42.97
2022-12-07T14:34:00.445Z,46.22
2022-12-07T14:36:26.986Z,45.63
2022-12-07T14:38:55.167Z,50.00
2022-12-07T14:41:42.340Z,44.60
2022-12-07T14:44:34.115Z,42.85
2022-12-07T14:49:45.867Z,44.85
2022-12-07T14:55:13.522Z,41.70
2022-12-07T14:57:39.920Z,45.17
2022-12-07T15:00:07.065Z,45.95
2022-12-07T15:02:33.531Z,46.53
2022-12-07T15:05:00.159Z,46.08
2022-12-07T15:07:27.503Z,46.47
2022-12-07T15:09:53.943Z,47.00
2022-12-07T15:12:20.384Z,43.28
2022-12-07T15:14:46.835Z,41.85
2022-12-07T15:17:24.730Z,42.85
2022-12-07T15:19:52.646Z,44.30
2022-12-07T15:22:19.075Z,43.78
2022-12-07T15:24:45.484Z,42.55
2022-12-07T15:27:11.938Z,44.92
2022-12-07T15:29:38.358Z,42.70
2022-12-07T15:32:05.553Z,42.92
2022-12-07T15:34:39.587Z,42.90
2022-12-07T15:37:07.356Z,40.85
2022-12-07T15:39:34.003Z,39.20
2022-12-07T15:42:00.526Z,45.97
2022-12-07T15:44:45.230Z,43.38
2022-12-07T15:47:11.701Z,46.85
2022-12-07T15:49:38.196Z,42.80
2022-12-07T15:52:04.778Z,44.45
2022-12-07T15:54:33.029Z,43.75
2022-12-07T15:56:59.667Z,41.40
2022-12-07T15:59:27.799Z,44.03
2022-12-07T16:01:54.347Z,49.40
2022-12-07T16:04:21.153Z,47.92
2022-12-07T16:06:47.933Z,41.67
2022-12-07T16:09:14.345Z,40.67
2022-12-07T16:11:40.762Z,41.90
2022-12-07T16:14:07.227Z,42.17
2022-12-07T16:16:34.076Z,43.42
2022-12-07T16:19:00.605Z,41.42
2022-12-07T16:21:27.067Z,44.17
2022-12-07T16:23:53.562Z,43.42
2022-12-07T16:26:22.549Z,45.78
2022-12-07T16:28:53.636Z,49.25
2022-12-07T16:31:22.450Z,53.05
2022-12-07T16:33:50.071Z,44.65
2022-12-07T16:36:34.352Z,51.28
2022-12-07T16:39:05.109Z,49.65
2022-12-07T16:41:32.274Z,48.80
2022-12-07T16:44:04.041Z,45.50
2022-12-07T16:46:30.497Z,46.88
2022-12-07T16:48:56.992Z,43.80
2022-12-07T16:51:23.408Z,43.95
2022-12-07T16:53:49.856Z,40.78
2022-12-07T16:56:17.313Z,42.05
2022-12-07T16:58:44.093Z,40.65
2022-12-07T17:01:16.559Z,46.85
2022-12-07T17:03:43.721Z,45.08
2022-12-07T17:06:16.189Z,47.00
2022-12-07T17:08:43.463Z,42.83
2022-12-07T17:11:31.737Z,43.55
2022-12-07T17:14:16.919Z,46.08
2022-12-07T17:16:43.417Z,47.38
2022-12-07T17:19:12.876Z,54.03
2022-12-07T17:21:39.699Z,45.03
2022-12-07T17:24:08.911Z,49.72
2022-12-07T17:26:36.371Z,42.97
2022-12-07T17:29:06.024Z,45.60
2022-12-07T17:31:33.403Z,44.90
2022-12-07T17:34:00.249Z,44.22
2022-12-07T17:36:29.363Z,48.72
2022-12-07T17:38:56.333Z,52.83
2022-12-07T17:41:45.248Z,45.72
2022-12-07T17:44:17.284Z,48.05
2022-12-07T17:46:45.161Z,46.78
2022-12-07T17:49:11.869Z,46.20
2022-12-07T17:51:57.109Z,49.38
2022-12-07T17:54:23.823Z,48.20
2022-12-07T17:56:50.814Z,50.65
2022-12-07T17:59:17.621Z,46.28
2022-12-07T18:01:45.057Z,48.00
2022-12-07T18:04:11.675Z,51.38
2022-12-07T18:06:38.546Z,47.83
2022-12-07T18:09:05.614Z,46.33
2022-12-07T18:11:32.561Z,46.08
2022-12-07T18:13:59.763Z,39.35
2022-12-07T18:16:29.660Z,44.97
2022-12-07T18:18:59.432Z,43.28
2022-12-07T18:21:28.073Z,46.28
2022-12-07T18:23:57.286Z,53.90
2022-12-07T18:26:25.791Z,45.10
2022-12-07T18:28:52.648Z,42.45
2022-12-07T18:31:20.345Z,43.08
2022-12-07T18:33:48.134Z,50.05
2022-12-07T18:36:16.170Z,54.22
2022-12-07T18:38:43.004Z,53.33
2022-12-07T18:41:12.460Z,57.13
2022-12-07T18:43:39.036Z,51.13
2022-12-07T18:46:21.450Z,51.80
2022-12-07T18:48:50.299Z,47.42
2022-12-07T18:51:17.834Z,43.50
2022-12-07T18:53:44.434Z,43.72
2022-12-07T18:56:16.675Z,47.08
2022-12-07T18:59:02.323Z,43.00
2022-12-07T19:01:31.939Z,43.45
2022-12-07T19:03:59.562Z,50.00
2022-12-07T19:06:26.743Z,47.55
2022-12-07T19:08:54.411Z,54.15
2022-12-07T19:11:46.539Z,50.67
2022-12-07T19:14:14.260Z,46.25
2022-12-07T19:16:42.995Z,48.35
2022-12-07T19:19:09.538Z,54.60
2022-12-07T19:21:36.066Z,54.58
2022-12-07T19:24:07.081Z,57.80
2022-12-07T19:26:34.121Z,52.33
2022-12-07T19:29:00.780Z,49.28
2022-12-07T19:31:27.295Z,45.58
2022-12-07T19:33:53.823Z,42.88
2022-12-07T19:36:20.233Z,45.67
2022-12-07T19:38:46.675Z,44.35
2022-12-07T19:41:32.753Z,46.65
2022-12-07T19:44:09.345Z,48.67
2022-12-07T19:46:35.856Z,47.17
2022-12-07T19:49:02.668Z,48.67
2022-12-07T19:51:30.799Z,54.60
2022-12-07T19:53:59.207Z,56.38
2022-12-07T19:56:28.261Z,53.17
2022-12-07T19:58:55.289Z,57.50
2022-12-07T20:01:22.070Z,58.10
2022-12-07T20:03:48.709Z,52.90
2022-12-07T20:06:20.243Z,56.85
2022-12-07T20:11:34.350Z,48.35
2022-12-07T20:14:01.244Z,56.30
2022-12-07T20:16:27.906Z,46.55
2022-12-07T20:18:57.857Z,50.45
2022-12-07T20:21:24.989Z,54.75
2022-12-07T20:23:51.792Z,51.90
2022-12-07T20:26:18.722Z,48.92
2022-12-07T20:28:46.231Z,52.25
2022-12-07T20:31:16.917Z,51.08
2022-12-07T20:33:46.441Z,45.78
2022-12-07T20:36:15.233Z,46.92
2022-12-07T20:38:43.151Z,41.80
2022-12-07T20:41:31.152Z,44.40
2022-12-07T20:43:57.655Z,41.78
2022-12-07T20:46:24.485Z,41.60
2022-12-07T20:48:51.423Z,45.13
2022-12-07T20:51:18.868Z,45.40
2022-12-07T20:53:45.426Z,41.58
2022-12-07T20:56:20.546Z,49.63
2022-12-07T20:58:47.675Z,41.58
2022-12-07T21:01:15.003Z,47.50
2022-12-07T21:03:41.841Z,51.03
2022-12-07T21:06:12.209Z,46.97
2022-12-07T21:08:38.740Z,45.65
2022-12-07T21:11:09.139Z,47.50
2022-12-07T21:13:35.580Z,54.78
2022-12-07T21:16:07.511Z,56.53
2022-12-07T21:18:34.314Z,51.22
2022-12-07T21:21:04.748Z,46.83
2022-12-07T21:23:31.938Z,49.67
2022-12-07T21:25:58.509Z,50.78
2022-12-07T21:28:24.944Z,51.25
2022-12-07T21:31:12.522Z,49.13
2022-12-07T21:33:40.291Z,47.28
2022-12-07T21:36:07.982Z,50.25
2022-12-07T21:38:34.508Z,48.90
2022-12-07T21:41:09.950Z,53.22
2022-12-07T21:43:36.363Z,44.47
2022-12-07T21:46:02.852Z,44.58
2022-12-07T21:48:29.383Z,48.78
2022-12-07T21:50:55.808Z,48.40
2022-12-07T21:53:22.238Z,48.40
2022-12-07T21:55:48.825Z,46.88
2022-12-07T21:58:15.433Z,48.38
2022-12-07T22:00:41.839Z,44.22
2022-12-07T22:03:12.180Z,45.50
2022-12-07T22:05:38.649Z,48.78
2022-12-07T22:08:05.454Z,47.65
2022-12-07T22:10:31.985Z,49.80
2022-12-07T22:12:59.460Z,49.05
2022-12-07T22:15:27.372Z,51.78
2022-12-07T22:17:55.673Z,48.85
2022-12-07T22:20:23.442Z,49.30
2022-12-07T22:22:50.272Z,48.70
2022-12-07T22:25:16.780Z,52.90
2022-12-07T22:27:43.586Z,52.28
2022-12-07T22:30:11.998Z,52.05
2022-12-07T22:32:48.238Z,48.20
2022-12-07T22:35:15.584Z,48.60
2022-12-07T22:37:42.040Z,50.17
2022-12-07T22:40:08.865Z,45.55
2022-12-07T22:42:35.351Z,47.92
2022-12-07T22:45:02.019Z,49.20
2022-12-07T22:47:28.653Z,46.28
2022-12-07T22:49:55.645Z,50.38
2022-12-07T22:52:22.203Z,50.58
2022-12-07T22:54:49.042Z,52.58
2022-12-07T22:57:15.520Z,51.75
2022-12-07T22:59:42.331Z,49.65
2022-12-07T23:02:08.972Z,52.83
2022-12-07T23:04:35.537Z,53.20
2022-12-07T23:07:02.063Z,51.70
2022-12-07T23:09:28.562Z,52.83
2022-12-07T23:12:13.538Z,65.65
2022-12-07T23:14:40.017Z,57.38
2022-12-07T23:17:06.818Z,53.10
2022-12-07T23:19:33.306Z,48.22
2022-12-07T23:22:00.107Z,48.60
2022-12-07T23:24:27.028Z,54.15
2022-12-07T23:26:53.543Z,59.17
2022-12-07T23:29:19.971Z,51.92
2022-12-07T23:31:47.904Z,54.35
2022-12-07T23:34:14.465Z,50.40
2022-12-07T23:36:40.906Z,54.58
2022-12-07T23:39:07.457Z,56.05
2022-12-07T23:41:33.957Z,60.33
2022-12-07T23:44:01.865Z,56.92
2022-12-07T23:46:30.825Z,54.83
2022-12-07T23:48:58.468Z,54.08
2022-12-07T23:51:25.367Z,63.00
2022-12-07T23:53:53.214Z,56.90
2022-12-07T23:56:25.766Z,61.88
2022-12-07T23:58:53.642Z,53.10
